Terminal Aerodrome Forecast
Issued by NWS

Home | Current Version | Previous Version | Text Only | Print | Product List | Glossary On
Versions: 1 2 3 4 5 6 7 8 9 10 11 12 13 14 15
000
FTUS46 KLOX 202300
TAFWJF
TAF
KWJF 202330Z 2100/2124 22012G18KT P6SM VCTS SCT080CB SCT120 BKN200
     FM210300 10008KT P6SM SCT120 BKN200
     FM210700 VRB03KT P6SM FEW120 SCT200
     FM212000 23012KT P6SM VCTS FEW070CB SCT120=

USA.gov is the U.S. government's official web portal to all federal, state and local government web resources and services.